createdAt,value
2019-03-27T00:01:44.551Z,7.00
2019-03-27T00:04:20.848Z,7.20
2019-03-27T00:06:49.150Z,8.70
2019-03-27T00:09:22.638Z,7.23
2019-03-27T00:11:52.244Z,6.80
2019-03-27T00:14:21.914Z,7.33
2019-03-27T00:16:53.902Z,6.73
2019-03-27T00:19:26.117Z,7.90
2019-03-27T00:21:57.052Z,7.73
2019-03-27T00:24:26.859Z,7.63
2019-03-27T00:27:02.401Z,7.50
2019-03-27T00:29:36.727Z,7.17
2019-03-27T00:32:11.908Z,8.43
2019-03-27T00:34:41.549Z,8.47
2019-03-27T00:37:11.178Z,9.10
2019-03-27T00:39:40.876Z,10.90
2019-03-27T00:42:13.859Z,10.37
2019-03-27T00:44:43.902Z,9.20
2019-03-27T00:47:18.423Z,8.17
2019-03-27T00:49:50.735Z,8.03
2019-03-27T00:52:23.017Z,7.23
2019-03-27T00:54:55.623Z,6.60
2019-03-27T00:57:29.488Z,7.17
2019-03-27T00:59:59.362Z,5.80
2019-03-27T01:02:28.978Z,8.67
2019-03-27T01:04:59.466Z,7.77
2019-03-27T01:07:29.089Z,7.80
2019-03-27T01:09:58.685Z,7.30
2019-03-27T01:12:28.539Z,6.83
2019-03-27T01:14:58.139Z,7.83
2019-03-27T01:17:27.932Z,8.70
2019-03-27T01:20:02.456Z,7.30
2019-03-27T01:22:32.066Z,8.03
2019-03-27T01:25:01.646Z,7.73
2019-03-27T01:27:31.570Z,8.27
2019-03-27T01:30:01.506Z,7.60
2019-03-27T01:32:31.259Z,9.07
2019-03-27T01:35:01.175Z,9.00
2019-03-27T01:37:35.732Z,8.63
2019-03-27T01:40:07.704Z,8.70
2019-03-27T01:42:41.869Z,7.33
2019-03-27T01:45:17.218Z,8.50
2019-03-27T01:47:58.157Z,8.80
2019-03-27T01:50:30.352Z,8.90
2019-03-27T01:53:02.719Z,9.50
2019-03-27T01:55:36.847Z,7.90
2019-03-27T01:58:06.644Z,7.97
2019-03-27T02:00:39.012Z,8.80
2019-03-27T02:03:08.775Z,8.70
2019-03-27T02:05:42.608Z,9.30
2019-03-27T02:08:12.260Z,9.50
2019-03-27T02:10:53.773Z,7.00
2019-03-27T02:13:25.149Z,10.10
2019-03-27T02:16:06.655Z,9.30
2019-03-27T02:18:43.916Z,9.30
2019-03-27T02:21:15.908Z,9.03
2019-03-27T02:23:45.523Z,10.13
2019-03-27T02:26:15.157Z,11.17
2019-03-27T02:28:46.223Z,8.90
2019-03-27T02:31:18.379Z,10.43
2019-03-27T02:33:49.238Z,10.70
2019-03-27T02:36:18.879Z,11.37
2019-03-27T02:38:48.965Z,10.90
2019-03-27T02:41:19.495Z,10.30
2019-03-27T02:43:51.621Z,9.23
2019-03-27T02:46:26.924Z,11.00
2019-03-27T02:48:58.808Z,9.97
2019-03-27T02:51:34.025Z,9.73
2019-03-27T02:54:02.253Z,10.37
2019-03-27T02:56:31.945Z,11.80
2019-03-27T02:59:02.022Z,10.80
2019-03-27T03:01:32.766Z,11.90
2019-03-27T03:04:02.373Z,8.60
2019-03-27T03:06:32.345Z,10.87
2019-03-27T03:09:04.791Z,10.80
2019-03-27T03:11:34.866Z,10.77
2019-03-27T03:14:04.669Z,11.23
2019-03-27T03:16:42.392Z,13.50
2019-03-27T03:19:05.884Z,11.93
2019-03-27T03:21:35.602Z,11.47
2019-03-27T03:24:06.559Z,12.37
2019-03-27T03:26:40.166Z,11.97
2019-03-27T03:29:12.865Z,12.47
2019-03-27T03:31:46.824Z,13.07
2019-03-27T03:34:18.924Z,11.17
2019-03-27T03:36:51.122Z,13.90
2019-03-27T03:39:24.720Z,11.50
2019-03-27T03:41:54.439Z,11.20
2019-03-27T03:44:27.069Z,12.30
2019-03-27T03:47:00.077Z,11.33
2019-03-27T03:49:34.981Z,12.33
2019-03-27T03:52:07.411Z,12.60
2019-03-27T03:54:37.414Z,12.17
2019-03-27T03:57:12.319Z,11.43
2019-03-27T03:59:42.411Z,13.00
2019-03-27T04:02:12.960Z,11.93
2019-03-27T04:04:44.202Z,13.10
2019-03-27T04:07:16.955Z,11.80
2019-03-27T04:09:48.548Z,12.07
2019-03-27T04:12:21.433Z,12.67
2019-03-27T04:14:51.279Z,11.83
2019-03-27T04:17:20.916Z,13.20
2019-03-27T04:19:50.559Z,11.63
2019-03-27T04:22:24.128Z,12.57
2019-03-27T04:24:56.240Z,12.17
2019-03-27T04:27:27.555Z,12.90
2019-03-27T04:30:05.159Z,10.73
2019-03-27T04:32:38.104Z,11.10
2019-03-27T04:35:13.690Z,12.50
2019-03-27T04:37:43.708Z,10.63
2019-03-27T04:40:15.422Z,11.77
2019-03-27T04:42:55.584Z,11.33
2019-03-27T04:45:30.174Z,11.13
2019-03-27T04:48:02.644Z,10.97
2019-03-27T04:50:32.264Z,13.07
2019-03-27T04:53:01.902Z,10.50
2019-03-27T04:55:33.350Z,11.60
2019-03-27T04:58:03.895Z,11.27
2019-03-27T05:00:37.037Z,11.67
2019-03-27T05:03:07.088Z,11.17
2019-03-27T05:05:40.165Z,11.90
2019-03-27T05:08:09.747Z,12.40
2019-03-27T05:10:39.420Z,11.87
2019-03-27T05:13:11.113Z,12.37
2019-03-27T05:15:41.925Z,11.70
2019-03-27T05:18:11.748Z,10.87
2019-03-27T05:20:46.169Z,12.47
2019-03-27T05:23:17.212Z,11.43
2019-03-27T05:25:48.232Z,11.53
2019-03-27T05:28:18.194Z,11.27
2019-03-27T05:30:49.479Z,11.20
2019-03-27T05:33:19.155Z,12.03
2019-03-27T05:35:53.462Z,11.33
2019-03-27T05:38:23.262Z,12.07
2019-03-27T05:40:52.892Z,13.33
2019-03-27T05:43:22.538Z,13.50
2019-03-27T05:45:55.442Z,11.67
2019-03-27T05:48:28.162Z,11.43
2019-03-27T05:50:57.791Z,13.50
2019-03-27T05:53:27.438Z,12.70
2019-03-27T05:55:57.180Z,12.57
2019-03-27T05:58:26.787Z,14.10
2019-03-27T06:00:56.455Z,11.93
2019-03-27T06:03:26.069Z,13.30
2019-03-27T06:05:55.705Z,12.33
2019-03-27T06:08:25.525Z,11.43
2019-03-27T06:11:00.722Z,14.03
2019-03-27T06:13:30.877Z,12.80
2019-03-27T06:16:03.009Z,12.20
2019-03-27T06:18:32.821Z,12.10
2019-03-27T06:21:05.766Z,12.90
2019-03-27T06:23:35.451Z,14.17
2019-03-27T06:26:08.304Z,11.73
2019-03-27T06:28:44.825Z,11.97
2019-03-27T06:31:17.598Z,13.10
2019-03-27T06:33:49.904Z,11.00
2019-03-27T06:36:25.095Z,14.20
2019-03-27T06:38:55.088Z,13.10
2019-03-27T06:41:25.841Z,12.20
2019-03-27T06:43:55.501Z,13.50
2019-03-27T06:46:25.171Z,11.57
2019-03-27T06:48:55.077Z,13.33
2019-03-27T06:51:40.004Z,13.43
2019-03-27T06:54:08.319Z,12.40
2019-03-27T06:56:43.982Z,14.10
2019-03-27T06:59:16.132Z,12.80
2019-03-27T07:04:36.687Z,11.60
2019-03-27T07:07:09.304Z,12.43
2019-03-27T07:09:42.638Z,12.60
2019-03-27T07:12:20.968Z,13.10
2019-03-27T07:14:48.209Z,11.87
2019-03-27T07:17:20.705Z,13.00
2019-03-27T07:19:54.493Z,13.43
2019-03-27T07:22:24.160Z,13.23
2019-03-27T07:24:55.183Z,12.33
2019-03-27T07:27:30.584Z,13.63
2019-03-27T07:30:01.591Z,13.30
2019-03-27T07:32:35.743Z,12.33
2019-03-27T07:35:06.433Z,14.37
2019-03-27T07:37:37.881Z,13.50
2019-03-27T07:40:10.301Z,12.37
2019-03-27T07:42:40.101Z,15.03
2019-03-27T07:45:12.212Z,11.50
2019-03-27T07:47:43.587Z,13.33
2019-03-27T07:50:26.560Z,12.33
2019-03-27T07:53:01.240Z,14.10
2019-03-27T07:55:38.649Z,13.53
2019-03-27T07:58:10.550Z,14.37
2019-03-27T08:00:47.306Z,14.27
2019-03-27T08:03:19.176Z,15.00
2019-03-27T08:05:56.758Z,14.40
2019-03-27T08:08:26.315Z,13.10
2019-03-27T08:10:59.105Z,12.60
2019-03-27T08:13:28.707Z,14.03
2019-03-27T08:16:02.218Z,13.60
2019-03-27T08:18:31.816Z,12.00
2019-03-27T08:21:04.328Z,12.80
2019-03-27T08:23:36.190Z,14.13
2019-03-27T08:26:07.788Z,13.00
2019-03-27T08:28:37.331Z,15.23
2019-03-27T08:31:09.510Z,13.40
2019-03-27T08:33:44.861Z,13.53
2019-03-27T08:36:15.313Z,14.27
2019-03-27T08:38:47.689Z,12.80
2019-03-27T08:41:24.403Z,12.73
2019-03-27T08:44:06.362Z,12.97
2019-03-27T08:46:39.016Z,12.90
2019-03-27T08:49:21.099Z,12.80
2019-03-27T08:51:40.980Z,15.37
2019-03-27T08:54:11.784Z,14.10
2019-03-27T08:56:48.342Z,12.30
2019-03-27T08:59:18.853Z,12.37
2019-03-27T09:01:50.143Z,12.83
2019-03-27T09:04:19.770Z,11.90
2019-03-27T09:06:55.366Z,12.10
2019-03-27T09:09:33.127Z,13.83
2019-03-27T09:12:03.805Z,11.70
2019-03-27T09:14:36.252Z,12.27
2019-03-27T09:17:08.625Z,10.80
2019-03-27T09:19:41.012Z,12.63
2019-03-27T09:22:11.630Z,11.97
2019-03-27T09:24:45.378Z,10.63
2019-03-27T09:27:15.158Z,11.13
2019-03-27T09:29:48.414Z,11.57
2019-03-27T09:32:19.953Z,14.57
2019-03-27T09:34:51.537Z,11.00
2019-03-27T09:37:26.826Z,10.90
2019-03-27T09:39:56.427Z,11.07
2019-03-27T09:42:28.072Z,10.57
2019-03-27T09:45:01.268Z,10.20
2019-03-27T09:47:34.341Z,10.27
2019-03-27T09:50:03.894Z,9.83
2019-03-27T09:52:33.491Z,10.17
2019-03-27T09:55:04.880Z,10.37
2019-03-27T09:57:34.634Z,9.00
2019-03-27T10:00:09.286Z,9.23
2019-03-27T10:02:39.847Z,8.73
2019-03-27T10:05:15.791Z,8.00
2019-03-27T10:07:48.163Z,8.20
2019-03-27T10:10:19.228Z,8.37
2019-03-27T10:12:49.770Z,9.40
2019-03-27T10:15:19.469Z,8.07
2019-03-27T10:17:49.139Z,8.47
2019-03-27T10:20:18.730Z,8.00
2019-03-27T10:23:12.275Z,8.07
2019-03-27T10:25:50.267Z,7.80
2019-03-27T10:28:19.985Z,6.00
2019-03-27T10:30:49.840Z,7.93
2019-03-27T10:33:20.033Z,9.83
2019-03-27T10:35:51.190Z,10.53
2019-03-27T10:38:21.096Z,8.63
2019-03-27T10:40:50.837Z,8.57
2019-03-27T10:43:20.590Z,7.13
2019-03-27T10:45:50.301Z,9.57
2019-03-27T10:48:20.004Z,9.97
2019-03-27T10:50:49.881Z,9.17
2019-03-27T10:53:20.271Z,9.40
2019-03-27T10:55:53.391Z,7.20
2019-03-27T10:58:23.683Z,9.27
2019-03-27T11:00:54.153Z,10.50
2019-03-27T11:03:25.558Z,8.40
2019-03-27T11:05:56.095Z,6.90
2019-03-27T11:08:25.727Z,8.80
2019-03-27T11:10:58.492Z,8.37
2019-03-27T11:13:30.442Z,8.60
2019-03-27T11:16:01.911Z,7.83
2019-03-27T11:18:38.816Z,8.80
2019-03-27T11:21:12.806Z,8.37
2019-03-27T11:23:51.907Z,8.43
2019-03-27T11:26:24.979Z,8.53
2019-03-27T11:28:58.769Z,8.50
2019-03-27T11:31:28.976Z,7.93
2019-03-27T11:33:58.654Z,5.70
2019-03-27T11:36:37.495Z,8.17
2019-03-27T11:39:11.283Z,6.57
2019-03-27T11:41:49.453Z,7.90
2019-03-27T11:44:21.779Z,7.37
2019-03-27T11:46:57.327Z,7.30
2019-03-27T11:49:26.924Z,8.03
2019-03-27T11:51:56.817Z,8.27
2019-03-27T11:54:29.724Z,8.20
2019-03-27T11:57:00.611Z,7.67
2019-03-27T11:59:30.291Z,7.93
2019-03-27T12:02:01.776Z,8.63
2019-03-27T12:04:31.410Z,7.20
2019-03-27T12:07:02.113Z,8.60
2019-03-27T12:09:31.998Z,7.20
2019-03-27T12:12:02.489Z,7.07
2019-03-27T12:14:33.575Z,8.57
2019-03-27T12:17:03.439Z,8.20
2019-03-27T12:19:37.833Z,8.17
2019-03-27T12:22:11.628Z,6.50
2019-03-27T12:24:44.141Z,8.60
2019-03-27T12:27:35.978Z,8.53
2019-03-27T12:30:08.044Z,9.27
2019-03-27T12:32:41.238Z,8.43
2019-03-27T12:35:16.376Z,8.63
2019-03-27T12:37:46.960Z,8.80
2019-03-27T12:40:20.718Z,8.03
2019-03-27T12:42:54.304Z,8.97
2019-03-27T12:45:33.448Z,7.97
2019-03-27T12:48:06.486Z,8.20
2019-03-27T12:50:36.283Z,7.07
2019-03-27T12:53:15.983Z,8.10
2019-03-27T12:55:49.111Z,8.97
2019-03-27T12:58:18.732Z,7.67
2019-03-27T13:00:50.211Z,8.50
2019-03-27T13:03:19.811Z,9.80
2019-03-27T13:05:49.500Z,8.80
2019-03-27T13:08:20.384Z,8.05
2019-03-27T13:10:52.029Z,7.90
2019-03-27T13:13:24.533Z,8.13
2019-03-27T13:15:54.162Z,7.07
2019-03-27T13:18:23.874Z,7.10
2019-03-27T13:20:54.300Z,6.77
2019-03-27T13:23:24.168Z,7.30
2019-03-27T13:25:54.766Z,8.00
2019-03-27T13:28:24.415Z,6.73
2019-03-27T13:30:56.955Z,6.97
2019-03-27T13:33:26.549Z,6.83
2019-03-27T13:35:56.477Z,6.97
2019-03-27T13:38:31.587Z,7.30
2019-03-27T13:41:06.300Z,6.43
2019-03-27T13:43:36.787Z,6.90
2019-03-27T13:46:06.725Z,5.90
2019-03-27T13:48:36.994Z,6.50
2019-03-27T13:51:11.507Z,5.60
2019-03-27T13:53:41.309Z,6.10
2019-03-27T13:56:14.012Z,5.87
2019-03-27T13:58:44.080Z,5.90
2019-03-27T14:01:15.350Z,5.30
2019-03-27T14:03:47.873Z,5.77
2019-03-27T14:06:23.262Z,5.20
2019-03-27T14:08:55.965Z,6.10
2019-03-27T14:11:27.393Z,5.60
2019-03-27T14:14:10.305Z,5.90
2019-03-27T14:16:29.443Z,4.90
2019-03-27T14:18:59.008Z,6.17
2019-03-27T14:21:30.333Z,4.60
2019-03-27T14:24:03.905Z,5.30
2019-03-27T14:26:44.893Z,4.70
2019-03-27T14:29:06.454Z,5.63
2019-03-27T14:31:37.783Z,5.97
2019-03-27T14:34:07.629Z,5.37
2019-03-27T14:36:39.431Z,6.00
2019-03-27T14:39:18.775Z,5.37
2019-03-27T14:41:54.815Z,5.20
2019-03-27T14:44:22.326Z,3.90
2019-03-27T14:46:52.223Z,4.00
2019-03-27T14:49:22.019Z,4.03
2019-03-27T14:52:07.631Z,3.53
2019-03-27T14:54:27.353Z,4.63
2019-03-27T14:56:59.224Z,5.17
2019-03-27T14:59:30.324Z,4.97
2019-03-27T15:02:01.147Z,5.10
2019-03-27T15:04:36.477Z,5.20
2019-03-27T15:07:09.078Z,5.30
2019-03-27T15:09:43.938Z,5.60
2019-03-27T15:12:15.209Z,5.40
2019-03-27T15:14:46.037Z,5.73
2019-03-27T15:17:17.998Z,5.10
2019-03-27T15:19:57.435Z,6.07
2019-03-27T15:22:28.679Z,4.10
2019-03-27T15:24:58.331Z,3.80
2019-03-27T15:27:30.834Z,4.20
2019-03-27T15:30:00.490Z,4.30
2019-03-27T15:32:30.307Z,4.60
2019-03-27T15:35:00.027Z,4.13
2019-03-27T15:37:29.726Z,4.60
2019-03-27T15:40:00.720Z,5.20
2019-03-27T15:42:38.659Z,4.43
2019-03-27T15:45:15.104Z,3.90
2019-03-27T15:47:44.734Z,5.33
2019-03-27T15:50:14.881Z,4.27
2019-03-27T15:52:44.577Z,4.60
2019-03-27T15:55:16.918Z,4.63
2019-03-27T15:57:46.694Z,4.13
2019-03-27T16:00:16.992Z,5.43
2019-03-27T16:02:49.259Z,4.70
2019-03-27T16:05:18.898Z,3.80
2019-03-27T16:07:54.470Z,4.93
2019-03-27T16:10:31.402Z,5.37
2019-03-27T16:13:01.038Z,3.87
2019-03-27T16:15:31.166Z,4.20
2019-03-27T16:18:05.019Z,3.97
2019-03-27T16:20:34.645Z,4.37
2019-03-27T16:23:04.562Z,3.80
2019-03-27T16:25:34.577Z,4.03
2019-03-27T16:28:04.208Z,4.13
2019-03-27T16:30:39.393Z,3.70
2019-03-27T16:33:11.862Z,3.67
2019-03-27T16:35:43.896Z,3.50
2019-03-27T16:38:16.889Z,3.87
2019-03-27T16:40:53.759Z,3.33
2019-03-27T16:43:26.705Z,3.83
2019-03-27T16:45:56.305Z,3.47
2019-03-27T16:48:28.772Z,4.20
2019-03-27T16:50:58.394Z,3.70
2019-03-27T16:53:28.385Z,4.57
2019-03-27T16:55:58.019Z,3.17
2019-03-27T16:58:32.690Z,4.03
2019-03-27T17:01:02.335Z,3.63
2019-03-27T17:03:32.054Z,3.90
2019-03-27T17:06:05.252Z,3.93
2019-03-27T17:08:35.463Z,3.63
2019-03-27T17:11:10.561Z,3.67
2019-03-27T17:13:43.602Z,4.37
2019-03-27T17:16:13.664Z,3.37
2019-03-27T17:18:45.633Z,3.10
2019-03-27T17:21:15.588Z,3.30
2019-03-27T17:23:45.728Z,5.20
2019-03-27T17:26:18.384Z,4.70
2019-03-27T17:28:47.993Z,3.53
2019-03-27T17:31:19.094Z,3.50
2019-03-27T17:33:50.415Z,4.43
2019-03-27T17:36:20.880Z,4.63
2019-03-27T17:38:53.227Z,5.10
2019-03-27T17:41:31.598Z,4.40
2019-03-27T17:44:02.908Z,3.77
2019-03-27T17:46:33.365Z,3.60
2019-03-27T17:49:05.555Z,3.80
2019-03-27T17:51:36.248Z,4.33
2019-03-27T17:54:20.428Z,4.77
2019-03-27T17:56:43.125Z,4.23
2019-03-27T17:59:15.715Z,4.07
2019-03-27T18:01:50.670Z,4.67
2019-03-27T18:04:20.673Z,2.70
2019-03-27T18:06:50.383Z,3.43
2019-03-27T18:09:25.665Z,3.23
2019-03-27T18:11:58.243Z,3.93
2019-03-27T18:14:27.973Z,4.27
2019-03-27T18:16:57.605Z,3.33
2019-03-27T18:19:27.179Z,3.50
2019-03-27T18:22:07.468Z,3.23
2019-03-27T18:24:31.598Z,3.60
2019-03-27T18:27:01.341Z,2.80
2019-03-27T18:29:33.427Z,3.70
2019-03-27T18:32:05.870Z,3.60
2019-03-27T18:34:36.264Z,3.77
2019-03-27T18:37:11.111Z,3.33
2019-03-27T18:39:43.524Z,3.57
2019-03-27T18:42:13.614Z,3.00
2019-03-27T18:44:44.833Z,4.20
2019-03-27T18:47:34.776Z,3.70
2019-03-27T18:50:05.383Z,2.70
2019-03-27T18:52:35.034Z,2.70
2019-03-27T18:55:25.467Z,3.10
2019-03-27T18:58:00.163Z,3.00
2019-03-27T19:00:23.402Z,3.17
2019-03-27T19:02:53.027Z,3.10
2019-03-27T19:05:22.619Z,3.43
2019-03-27T19:07:52.332Z,3.30
2019-03-27T19:10:22.119Z,3.90
2019-03-27T19:12:51.854Z,3.73
2019-03-27T19:15:21.560Z,4.03
2019-03-27T19:17:52.979Z,3.43
2019-03-27T19:20:22.626Z,4.60
2019-03-27T19:22:52.534Z,3.17
2019-03-27T19:25:23.383Z,3.10
2019-03-27T19:27:59.199Z,3.60
2019-03-27T19:30:28.910Z,4.00
2019-03-27T19:33:01.436Z,3.30
2019-03-27T19:35:34.158Z,2.70
2019-03-27T19:38:05.542Z,3.60
2019-03-27T19:40:35.497Z,3.67
2019-03-27T19:43:06.709Z,3.50
2019-03-27T19:45:36.422Z,3.53
2019-03-27T19:48:14.738Z,3.43
2019-03-27T19:50:48.792Z,3.70
2019-03-27T19:53:23.524Z,3.23
2019-03-27T19:55:54.342Z,3.43
2019-03-27T19:58:34.716Z,3.77
2019-03-27T20:01:05.098Z,4.00
2019-03-27T20:03:34.960Z,3.43
2019-03-27T20:06:09.803Z,3.60
2019-03-27T20:08:39.455Z,3.70
2019-03-27T20:11:09.234Z,3.47
2019-03-27T20:13:39.035Z,3.43
2019-03-27T20:16:10.389Z,3.27
2019-03-27T20:18:41.008Z,4.13
2019-03-27T20:21:11.617Z,3.50
2019-03-27T20:23:43.488Z,3.80
2019-03-27T20:26:13.600Z,4.77
2019-03-27T20:28:44.660Z,35.47
2019-03-27T20:31:14.490Z,5.90
2019-03-27T20:33:44.389Z,4.10
2019-03-27T20:36:16.611Z,5.63
2019-03-27T20:38:49.528Z,5.10
2019-03-27T20:41:19.187Z,4.10
2019-03-27T20:43:55.065Z,4.20
2019-03-27T20:46:29.136Z,4.20
2019-03-27T20:48:56.936Z,4.07
2019-03-27T20:51:29.671Z,4.90
2019-03-27T20:54:01.343Z,4.13
2019-03-27T20:56:31.095Z,4.80
2019-03-27T20:59:01.590Z,4.37
2019-03-27T21:01:31.664Z,4.23
2019-03-27T21:04:05.142Z,5.20
2019-03-27T21:06:38.233Z,4.23
2019-03-27T21:09:07.866Z,4.80
2019-03-27T21:11:40.682Z,4.43
2019-03-27T21:14:10.248Z,5.07
2019-03-27T21:16:40.130Z,4.90
2019-03-27T21:19:12.043Z,6.60
2019-03-27T21:21:42.217Z,7.93
2019-03-27T21:24:13.233Z,4.93
2019-03-27T21:26:42.853Z,5.20
2019-03-27T21:29:13.617Z,3.80
2019-03-27T21:31:46.205Z,4.57
2019-03-27T21:34:20.916Z,4.60
2019-03-27T21:36:50.835Z,5.03
2019-03-27T21:39:22.169Z,4.10
2019-03-27T21:41:53.273Z,4.53
2019-03-27T21:44:22.982Z,4.77
2019-03-27T21:46:55.313Z,4.33
2019-03-27T21:49:25.356Z,4.40
2019-03-27T21:51:57.434Z,4.40
2019-03-27T21:54:27.176Z,4.20
2019-03-27T21:56:56.792Z,4.40
2019-03-27T21:59:26.457Z,4.73
2019-03-27T22:01:57.177Z,5.03
2019-03-27T22:04:29.813Z,4.67
2019-03-27T22:07:00.027Z,4.90
2019-03-27T22:09:32.297Z,4.60
2019-03-27T22:12:02.787Z,4.93
2019-03-27T22:14:51.521Z,4.80
2019-03-27T22:17:26.772Z,5.67
2019-03-27T22:19:57.630Z,4.50
2019-03-27T22:22:30.215Z,5.90
2019-03-27T22:25:02.000Z,5.00
2019-03-27T22:27:32.221Z,5.00
2019-03-27T22:30:03.649Z,5.80
2019-03-27T22:32:33.377Z,5.30
2019-03-27T22:35:03.334Z,6.03
2019-03-27T22:37:33.003Z,5.70
2019-03-27T22:40:02.620Z,5.83
2019-03-27T22:42:33.557Z,6.00
2019-03-27T22:45:04.965Z,6.47
2019-03-27T22:47:34.984Z,5.90
2019-03-27T22:50:08.897Z,6.77
2019-03-27T22:52:44.413Z,6.70
2019-03-27T22:55:13.991Z,6.60
2019-03-27T22:57:45.081Z,5.47
2019-03-27T23:00:32.437Z,6.90
2019-03-27T23:02:49.634Z,6.47
2019-03-27T23:05:20.773Z,4.70
2019-03-27T23:07:59.475Z,5.33
2019-03-27T23:10:29.250Z,6.17
2019-03-27T23:12:58.938Z,5.90
2019-03-27T23:15:29.670Z,5.63
2019-03-27T23:17:59.239Z,5.50
2019-03-27T23:20:30.018Z,5.40
2019-03-27T23:23:02.708Z,6.13
2019-03-27T23:25:33.687Z,6.20
2019-03-27T23:28:03.289Z,5.43
2019-03-27T23:30:32.856Z,4.63
2019-03-27T23:33:08.813Z,6.03
2019-03-27T23:35:38.634Z,4.63
2019-03-27T23:38:08.520Z,5.50
2019-03-27T23:40:42.603Z,5.30
2019-03-27T23:43:12.218Z,6.00
2019-03-27T23:45:46.002Z,5.53
2019-03-27T23:48:15.718Z,5.83
2019-03-27T23:50:45.332Z,5.20
2019-03-27T23:53:14.924Z,4.73
2019-03-27T23:55:47.458Z,5.10
2019-03-27T23:58:17.061Z,5.53
